Flight Track Log - Related Links

Times and Time Zones

All times are in EDT time to prevent confusion due to time zone crossing. See the PDT4147 flight status page for this flight to view local times or setup timezone preferences in your user account.

Time Position Orientation Groundspeed Altitude Reporting Facility
EDT Latitude Longitude Course Direction KTS MPH feet Rate Location/Type
Mon 02:58:30 PM 35.2408 -80.9364 71° East 143 165 800  Level Atlanta Center
Mon 02:59:13 PM 35.2461 -80.8981 80° East 176 203 2,600 1,731 Climbing Atlanta Center
Mon 03:00:14 PM 35.2322 -80.8375 106° East 191 220 3,800 1,082 Climbing Atlanta Center
Mon 03:01:00 PM 35.3037 -80.5991 64° Northeast  Level FlightAware Approximate
Mon 03:01:15 PM 35.2181 -80.7744 105° East 186 214 4,800  Level Atlanta Center
Mon 03:02:00 PM 35.3313 -80.5146 71° East  Level FlightAware Approximate
Mon 03:02:17 PM 35.2183 -80.7108 90° East 199 229 5,600  Level Atlanta Center
Mon 03:03:00 PM 35.3556 -80.4285 71° East  Level FlightAware Approximate
Mon 03:03:18 PM 35.2436 -80.6489 63° Northeast 195 224 6,700  Level Atlanta Center
Mon 03:04:19 PM 35.2669 -80.5869 65° Northeast 200 230 7,900 1,180 Climbing Atlanta Center
Mon 03:06:00 PM 35.3455 -80.4644 71° East  Level FlightAware Approximate
Mon 03:13:00 PM 35.6551 -80.0844 North  Level FlightAware Approximate
Mon 03:14:00 PM 35.7294 -80.0788 North  Level FlightAware Approximate
Mon 03:15:00 PM 35.8036 -80.0731 North  Level FlightAware Approximate
Mon 03:16:00 PM 35.8778 -80.0675 North  Level FlightAware Approximate
Mon 03:17:00 PM 35.9520 -80.0618 North  Level FlightAware Approximate
Mon 03:18:00 PM 36.0262 -80.0561 North  Level FlightAware Approximate
Mon 03:19:00 PM 36.1004 -80.0504 North  Level FlightAware Approximate
Mon 03:20:00 PM 36.1746 -80.0447 North  Level FlightAware Approximate
Mon 03:21:00 PM 36.2488 -80.0389 North  Level FlightAware Approximate
Mon 03:22:00 PM 36.3230 -80.0332 North  Level FlightAware Approximate
Mon 03:23:00 PM 36.3972 -80.0275 North  Level FlightAware Approximate
Mon 03:24:00 PM 36.4715 -80.0217 North  Level FlightAware Approximate
Mon 03:25:00 PM 36.5457 -80.0159 North  Level FlightAware Approximate
Mon 03:26:00 PM 36.6199 -80.0101 North  Level FlightAware Approximate
Mon 03:27:00 PM 36.6941 -80.0044 North  Level FlightAware Approximate
Mon 03:28:00 PM 36.7683 -80.0000 North  Level FlightAware Approximate
Mon 03:29:00 PM 36.8427 -80.0000 North  Level FlightAware Approximate
Mon 03:30:00 PM 36.9170 -80.0000 North  Level FlightAware Approximate
Mon 03:31:00 PM 36.9897 -79.9833 North  Level FlightAware Approximate
Mon 03:32:00 PM 37.0640 -79.9833 360° North  Level FlightAware Approximate
Mon 03:33:00 PM 37.1384 -79.9833 North  Level FlightAware Approximate
Mon 03:34:00 PM 37.2123 -79.9775 North  Level FlightAware Approximate
Mon 03:35:00 PM 37.2860 -79.9667 North  Level FlightAware Approximate
Mon 03:36:00 PM 37.3167 -79.9667 North  Level FlightAware Approximate
Mon 03:37:00 PM 37.3255 -79.9754 North  Level Estimated
Mon 03:38:00 PM 37.3255 -79.9754 North  Level Estimated
Mon 03:39:00 PM 37.3255 -79.9754 North  Level Estimated
Mon 03:40:00 PM 37.3255 -79.9754 North  Level Estimated
Mon 03:41:00 PM 37.3255 -79.9754 North  Level Estimated
Mon 03:42:00 PM 37.3255 -79.9754 North  Level Estimated

Login

Don't have an account? Register now (free) for customized features, flight alerts, and more!